Bei Facebook empfehlenBei Twitter postenGoogle plusPinterest

Das Wetter im Erzgebirge am 28.12.2015

Wetter und Klima am 28.12.2015 Holzhau im Erzgebirge (630m ü.NN)
Letzte gemessene Temperatur und Uhrzeit der Messung23:45:00 Uhr5.80 °C
Temperatur (Maximum / Höchstwert) und Uhrzeit der Messung14:00:00 Uhr8.30 °C
Temperatur (Minimum / Tiefstwert) und Uhrzeit der Messung22:30:004.90 °C
Errechneter Absolutwert der Temperaturschwankungen zwischen Tmin und Tmax des Tages3.40 K
Errechnete Tagesmitteltemperatur7.08958 °C
Gesamt - Niederschlag des Tages (in flüssiger Form)0.51 Liter / m²
Luftdruck (Maximum / Höchstwert) und Zeitpunkt der Messung11:00:00 Uhr1026.20 hPa
Luftdruck (Minimum / Tiefstwert) und Zeitpunkt der Messung23:45:00 Uhr1024.80 hPa
Errechneter Absolutwert der Luftdruckschwankungen des Tages1.40 hPa
Höchste gemessene Windgeschwindigkeit und Uhrzeit der Messung00:30:00 Uhr5.04 km/h
Errechnete Windhäufigkeit in Relation zu den Messwerten des Tages4.16667 %
Niedrigste Windkühle (Windchill) und Zeitpunkt der Messung22:30:00 Uhr4.90 °C
Taupunkt (Maximum / Höchstwert) und Uhrzeit der Messung13:30:00 Uhr7.20 °C
Taupunkt (Minimum / Tiefstwert) und Uhrzeit der Messung22:30:004.00 °C
Anzahl der automatisch eingelesenen Messwerte 96

Detaillierte Wetter- und Klima- Messwerte für den 28.12.2015 in Holzhau im Erzgebirge (630m ü.NN)
ZeitTemperaturLuftdruckRel. LuftfeuchteWindWindrichtungWindchillTaupunktNiederschlag l/m²
23:45:005.80 °C1024.80 hPa95.00 %5.10 °C0.51
23:30:005.60 °C1024.80 hPa95.00 %4.90 °C0.51
23:15:005.50 °C1024.80 hPa95.00 %4.80 °C0.51
23:00:005.30 °C1025.00 hPa94.00 %4.40 °C0.51
22:45:005.10 °C1025.00 hPa94.00 %4.20 °C0.51
22:30:004.90 °C1025.00 hPa94.00 %4.00 °C0.51
22:15:004.90 °C1025.20 hPa94.00 %4.00 °C0.51
22:00:004.90 °C1025.10 hPa94.00 %4.00 °C0.51
21:45:004.90 °C1025.20 hPa94.00 %4.00 °C0.51
21:30:005.00 °C1025.20 hPa94.00 %4.10 °C0.51
21:15:005.00 °C1025.20 hPa93.00 %4.00 °C0.51
21:00:005.40 °C1025.20 hPa93.00 %4.40 °C0.51
20:45:005.90 °C1025.30 hPa93.00 %4.90 °C0.51
20:30:006.10 °C1025.00 hPa93.00 %5.10 °C0.51
20:15:006.30 °C1025.30 hPa93.00 %5.30 °C0.51
20:00:006.40 °C1025.30 hPa93.00 %5.40 °C0.51
19:45:007.00 °C1025.40 hPa93.00 %5.90 °C0.51
19:30:007.10 °C1025.40 hPa93.00 %6.00 °C0.51
19:15:007.20 °C1025.40 hPa93.00 %6.10 °C0.51
19:00:007.20 °C1025.60 hPa93.00 %6.10 °C0.51
18:45:007.30 °C1025.50 hPa93.00 %6.20 °C0.51
18:30:007.30 °C1025.40 hPa93.00 %6.20 °C0.51
18:15:007.40 °C1025.40 hPa93.00 %6.30 °C0.51
18:00:007.30 °C1025.40 hPa93.00 %6.20 °C0.51
17:45:007.20 °C1025.40 hPa93.00 %6.10 °C0.51
17:30:007.30 °C1025.40 hPa92.00 %6.10 °C0.51
17:15:007.30 °C1025.50 hPa92.00 %6.10 °C0.51
17:00:007.30 °C1025.50 hPa92.00 %6.10 °C0.51
16:45:007.40 °C1025.30 hPa92.00 %6.20 °C0.51
16:30:007.50 °C1025.30 hPa92.00 %6.30 °C0.51
16:15:007.60 °C1025.50 hPa92.00 %6.40 °C0.51
16:00:007.70 °C1025.60 hPa92.00 %6.50 °C0.51
15:45:007.80 °C1025.50 hPa92.00 %6.60 °C0.51
15:30:007.90 °C1025.60 hPa92.00 %6.70 °C0.51
15:15:007.90 °C1025.60 hPa92.00 %6.70 °C0.51
15:00:007.90 °C1025.70 hPa92.00 %6.70 °C0.51
14:45:008.10 °C1025.50 hPa92.00 %6.90 °C0.51
14:30:008.20 °C1025.40 hPa92.00 %7.00 °C0.51
14:15:008.20 °C1025.40 hPa92.00 %7.00 °C0.51
14:00:008.30 °C1025.70 hPa92.00 %7.10 °C0.51
13:45:008.30 °C1025.60 hPa92.00 %7.10 °C0.51
13:30:008.30 °C1025.70 hPa93.00 %7.20 °C0.51
13:15:008.30 °C1025.60 hPa93.00 %7.20 °C0.51
13:00:008.20 °C1025.70 hPa93.00 %7.10 °C0.51
12:45:008.20 °C1025.80 hPa93.00 %7.10 °C0.51
12:30:008.10 °C1025.80 hPa93.00 %7.00 °C0.51
12:15:008.00 °C1025.90 hPa93.00 %6.90 °C0.51
12:00:007.90 °C1026.00 hPa93.00 %6.80 °C0.51
11:45:007.90 °C1026.00 hPa93.00 %6.80 °C0.51
11:30:007.90 °C1025.90 hPa93.00 %6.80 °C0.51
11:15:007.90 °C1026.10 hPa93.00 %6.80 °C0.51
11:00:007.90 °C1026.20 hPa94.00 %7.00 °C0.51
10:45:007.80 °C1026.20 hPa94.00 %6.90 °C0.51
10:30:007.60 °C1026.10 hPa94.00 %6.70 °C0.51
10:15:007.50 °C1026.10 hPa94.00 %6.60 °C0.51
10:00:007.20 °C1026.20 hPa94.00 %6.30 °C0.51
09:45:007.00 °C1026.20 hPa93.00 %5.90 °C0.51
09:30:006.90 °C1026.10 hPa93.00 %5.80 °C0.51
09:15:006.70 °C1026.10 hPa93.00 %5.70 °C0.51
09:00:006.60 °C1026.00 hPa93.00 %5.60 °C0.51
08:45:006.60 °C1025.90 hPa93.00 %5.60 °C0.51
08:30:006.60 °C1025.90 hPa93.00 %5.60 °C0.51
08:15:006.50 °C1025.70 hPa93.00 %5.50 °C0.51
08:00:006.60 °C1025.70 hPa93.00 %5.60 °C0.51
07:45:006.60 °C1025.60 hPa93.00 %5.60 °C0.51
07:30:006.70 °C1025.70 hPa92.00 %5.50 °C0.51
07:15:006.70 °C1025.60 hPa92.00 %5.50 °C0.51
07:00:006.70 °C1025.50 hPa92.00 %5.50 °C0.51
06:45:006.70 °C1025.30 hPa92.00 %5.50 °C0.51
06:30:006.70 °C1025.30 hPa92.00 %5.50 °C0.51
06:15:006.60 °C1025.20 hPa92.00 %5.40 °C0.51
06:00:006.60 °C1025.20 hPa92.00 %5.40 °C0.51
05:45:006.70 °C1025.50 hPa92.00 %5.50 °C0.51
05:30:006.70 °C1025.50 hPa91.00 %5.30 °C0.51
05:15:006.80 °C1025.50 hPa91.00 %5.40 °C0.51
05:00:006.80 °C1025.50 hPa91.00 %5.40 °C0.51
04:45:006.80 °C1025.50 hPa91.00 %5.40 °C0.51
04:30:006.80 °C1025.40 hPa90.00 %5.30 °C0.51
04:15:006.90 °C1025.30 hPa90.00 %5.40 °C0.51
04:00:006.90 °C1025.50 hPa90.00 %1.80 km/hWSW6.90 °C5.40 °C0.51
03:45:006.90 °C1025.40 hPa89.00 %5.20 °C 
03:30:006.90 °C1025.40 hPa89.00 %5.20 °C 
03:15:007.10 °C1025.60 hPa88.00 %5.30 °C 
03:00:007.20 °C1025.50 hPa88.00 %5.30 °C 
02:45:007.30 °C1025.40 hPa87.00 %5.30 °C 
02:30:007.40 °C1025.50 hPa87.00 %5.40 °C 
02:15:007.70 °C1025.50 hPa86.00 %5.50 °C 
02:00:007.90 °C1025.20 hPa85.00 %5.50 °C 
01:45:008.10 °C1025.20 hPa85.00 %5.70 °C 
01:30:008.10 °C1025.00 hPa85.00 %5.70 °C 
01:15:008.20 °C1025.10 hPa85.00 %5.80 °C 
01:00:008.20 °C1025.00 hPa85.00 %5.80 °C 
00:45:008.20 °C1025.00 hPa85.00 %5.80 °C 
00:30:008.30 °C1025.00 hPa85.00 %5.04 km/hWNW7.80 °C5.90 °C 
00:15:008.30 °C1025.00 hPa85.00 %2.52 km/hWNW8.30 °C5.90 °C 
00:00:008.20 °C1024.90 hPa86.00 %3.60 km/hWNW8.20 °C6.00 °C 

Permanenter Link zu dieser Seite: Wetter im Erzgebirge am 28.12.2015
Performance-Info: Die Erstellung der Seite / Statistik(en) / Tabelle(n) erforderte 5 Datenbankserver-Abfrage(n) und dauerte 99 Millisekunden. (Dieser Messwert ist von der Gesamt-Auslastung des Servers abhängig.)
Erzgebirge - Wetter | Erzgebirge - Wetter (Mobilgeräte) | Komplette Klimadatenbank